createdAt,value
2023-05-10T00:00:35.939Z,434.3846
2023-05-10T00:01:36.985Z,433.1538
2023-05-10T00:02:38.216Z,431.5385
2023-05-10T00:03:39.263Z,434.2308
2023-05-10T00:04:40.284Z,432.3077
2023-05-10T00:05:41.391Z,428.0000
2023-05-10T00:06:42.442Z,426.0000
2023-05-10T00:07:43.528Z,426.2308
2023-05-10T00:08:44.617Z,425.8462
2023-05-10T00:09:45.705Z,425.9231
2023-05-10T00:10:46.818Z,425.2308
2023-05-10T00:11:47.888Z,425.7692
2023-05-10T00:12:49.052Z,428.1538
2023-05-10T00:13:50.070Z,429.0769
2023-05-10T00:14:51.164Z,428.3077
2023-05-10T00:15:52.245Z,427.7692
2023-05-10T00:16:53.522Z,428.1538
2023-05-10T00:17:54.485Z,427.6923
2023-05-10T00:18:55.548Z,426.6923
2023-05-10T00:19:56.610Z,427.9231
2023-05-10T00:20:57.735Z,430.0000
2023-05-10T00:21:58.798Z,430.2308
2023-05-10T00:22:59.879Z,426.6923
2023-05-10T00:24:00.987Z,427.6923
2023-05-10T00:25:02.076Z,431.4615
2023-05-10T00:26:03.182Z,433.3077
2023-05-10T00:27:04.231Z,430.3077
2023-05-10T00:28:05.327Z,430.0000
2023-05-10T00:29:06.451Z,430.0769
2023-05-10T00:30:07.516Z,431.7692
2023-05-10T00:31:08.610Z,433.5385
2023-05-10T00:32:09.804Z,433.1538
2023-05-10T00:33:10.869Z,433.6154
2023-05-10T00:34:11.899Z,434.9231
2023-05-10T00:35:12.989Z,434.0769
2023-05-10T00:36:14.097Z,431.8462
2023-05-10T00:37:15.169Z,432.6154
2023-05-10T00:38:16.245Z,434.5385
2023-05-10T00:39:17.353Z,434.5385
2023-05-10T00:40:18.712Z,434.7692
2023-05-10T00:41:19.545Z,434.3846
2023-05-10T00:42:20.611Z,435.1538
2023-05-10T00:43:21.704Z,433.4615
2023-05-10T00:44:22.792Z,429.7692
2023-05-10T00:45:23.904Z,429.6154
2023-05-10T00:46:25.019Z,431.3077
2023-05-10T00:47:26.160Z,429.9231
2023-05-10T00:48:27.166Z,427.5385
2023-05-10T00:49:28.250Z,428.5385
2023-05-10T00:50:29.333Z,428.6154
2023-05-10T00:51:30.473Z,428.3077
2023-05-10T00:52:31.537Z,428.9231
2023-05-10T00:53:32.613Z,428.0769
2023-05-10T00:54:33.705Z,427.5385
2023-05-10T00:55:34.793Z,429.1538
2023-05-10T00:56:35.898Z,430.7692
2023-05-10T00:57:36.962Z,430.9231
2023-05-10T00:58:38.056Z,432.1538
2023-05-10T00:59:39.146Z,430.9231
2023-05-10T01:00:40.234Z,432.9231
2023-05-10T01:01:41.391Z,433.1538
2023-05-10T01:02:42.519Z,431.3846
2023-05-10T01:03:43.488Z,431.3077
2023-05-10T01:04:44.642Z,432.3077
2023-05-10T01:05:45.685Z,432.3077
2023-05-10T01:06:46.775Z,430.8462
2023-05-10T01:07:47.847Z,428.6154
2023-05-10T01:08:48.933Z,430.0000
2023-05-10T01:09:50.032Z,429.3846
2023-05-10T01:10:51.109Z,426.4615
2023-05-10T01:11:52.281Z,425.4615
2023-05-10T01:12:53.366Z,426.6154
2023-05-10T01:13:54.376Z,425.9231
2023-05-10T01:14:55.475Z,426.2308
2023-05-10T01:15:56.593Z,428.0769
2023-05-10T01:16:57.700Z,426.0769
2023-05-10T01:17:58.780Z,426.8462
2023-05-10T01:18:59.856Z,429.0769
2023-05-10T01:20:00.945Z,428.9231
2023-05-10T01:21:02.023Z,426.6923
2023-05-10T01:22:03.123Z,432.6154
2023-05-10T01:23:04.196Z,435.3846
2023-05-10T01:24:05.297Z,434.7692
2023-05-10T01:25:06.355Z,430.6923
2023-05-10T01:26:07.444Z,428.8462
2023-05-10T01:27:08.631Z,429.6923
2023-05-10T01:28:09.629Z,431.0769
2023-05-10T01:29:10.727Z,429.1538
2023-05-10T01:30:22.003Z,429.3846
2023-05-10T01:31:13.933Z,430.9231
2023-05-10T01:32:14.018Z,431.9231
2023-05-10T01:33:15.082Z,432.4615
2023-05-10T01:34:16.160Z,432.0000
2023-05-10T01:35:17.251Z,432.4615
2023-05-10T01:36:18.327Z,432.5385
2023-05-10T01:37:19.440Z,429.3846
2023-05-10T01:38:20.525Z,429.0000
2023-05-10T01:39:21.600Z,430.1538
2023-05-10T01:40:22.672Z,429.2308
2023-05-10T01:41:23.762Z,429.5385
2023-05-10T01:42:24.877Z,427.3846
2023-05-10T01:43:25.935Z,429.3846
2023-05-10T01:44:27.038Z,429.1538
2023-05-10T01:45:28.157Z,433.1538
2023-05-10T01:46:29.233Z,433.8462
2023-05-10T01:47:30.354Z,433.3077
2023-05-10T01:48:31.452Z,430.7692
2023-05-10T01:49:32.483Z,429.0000
2023-05-10T01:50:33.574Z,429.8462
2023-05-10T01:51:34.664Z,431.1538
2023-05-10T01:52:35.754Z,431.1538
2023-05-10T01:53:36.836Z,432.3077
2023-05-10T01:54:37.929Z,432.6154
2023-05-10T01:55:39.038Z,431.9231
2023-05-10T01:56:40.121Z,431.0769
2023-05-10T01:57:41.210Z,430.6923
2023-05-10T01:58:42.309Z,429.6923
2023-05-10T01:59:43.402Z,430.4615
2023-05-10T02:00:44.534Z,431.2308
2023-05-10T02:01:45.573Z,429.1538
2023-05-10T02:02:46.709Z,428.4615
2023-05-10T02:03:47.814Z,429.9231
2023-05-10T02:04:48.853Z,429.1538
2023-05-10T02:05:57.479Z,430.0769
2023-05-10T02:06:51.044Z,429.2500
2023-05-10T02:07:52.169Z,428.6923
2023-05-10T02:08:53.212Z,429.0769
2023-05-10T02:09:54.322Z,430.1538
2023-05-10T02:10:55.407Z,431.4615
2023-05-10T02:11:56.494Z,429.3077
2023-05-10T02:12:57.615Z,427.7692
2023-05-10T02:13:58.703Z,429.3846
2023-05-10T02:14:59.795Z,430.9231
2023-05-10T02:16:00.904Z,430.0000
2023-05-10T02:17:02.082Z,429.5385
2023-05-10T02:18:03.151Z,429.9231
2023-05-10T02:19:04.162Z,432.8462
2023-05-10T02:20:05.232Z,433.3846
2023-05-10T02:21:06.387Z,433.9231
2023-05-10T02:22:07.448Z,433.3846
2023-05-10T02:23:08.538Z,433.0000
2023-05-10T02:24:09.619Z,433.6923
2023-05-10T02:25:10.706Z,433.8462
2023-05-10T02:26:11.802Z,433.0000
2023-05-10T02:27:12.896Z,433.1538
2023-05-10T02:28:14.134Z,433.4615
2023-05-10T02:29:15.160Z,435.5385
2023-05-10T02:30:16.367Z,437.2308
2023-05-10T02:31:17.320Z,434.9231
2023-05-10T02:32:18.518Z,432.7692
2023-05-10T02:33:19.532Z,430.7692
2023-05-10T02:34:20.620Z,430.7692
2023-05-10T02:35:21.699Z,430.5385
2023-05-10T02:36:22.784Z,432.3846
2023-05-10T02:37:23.885Z,433.1538
2023-05-10T02:38:24.968Z,431.5385
2023-05-10T02:39:26.043Z,431.6923
2023-05-10T02:40:28.792Z,433.8462
2023-05-10T02:41:28.242Z,435.9231
2023-05-10T02:42:29.328Z,437.1538
2023-05-10T02:43:30.422Z,436.6923
2023-05-10T02:44:31.543Z,434.6154
2023-05-10T02:45:32.595Z,434.8462
2023-05-10T02:46:33.815Z,435.8462
2023-05-10T02:47:34.811Z,435.5385
2023-05-10T02:48:35.891Z,437.2308
2023-05-10T02:49:36.969Z,436.8462
2023-05-10T02:50:38.062Z,437.2308
2023-05-10T02:51:39.156Z,439.0769
2023-05-10T02:52:40.250Z,439.8462
2023-05-10T02:53:41.405Z,440.8462
2023-05-10T02:54:42.411Z,441.7692
2023-05-10T02:55:43.518Z,438.6923
2023-05-10T02:56:44.605Z,439.4615
2023-05-10T02:57:45.711Z,438.5385
2023-05-10T02:58:46.815Z,438.4615
2023-05-10T02:59:47.898Z,435.9231
2023-05-10T03:00:48.952Z,435.4615
2023-05-10T03:01:50.180Z,436.5385
2023-05-10T03:02:51.175Z,438.3077
2023-05-10T03:03:52.289Z,437.2308
2023-05-10T03:04:53.369Z,438.8462
2023-05-10T03:05:54.441Z,437.5385
2023-05-10T03:06:55.505Z,436.3077
2023-05-10T03:07:56.629Z,436.0000
2023-05-10T03:08:57.709Z,437.3846
2023-05-10T03:09:58.788Z,438.1538
2023-05-10T03:10:59.864Z,438.6923
2023-05-10T03:12:00.961Z,436.5385
2023-05-10T03:13:02.083Z,433.6923
2023-05-10T03:14:03.158Z,432.0000
2023-05-10T03:15:04.219Z,432.5385
2023-05-10T03:16:05.336Z,435.3077
2023-05-10T03:17:06.407Z,437.5385
2023-05-10T03:18:07.616Z,439.3077
2023-05-10T03:19:08.579Z,438.6154
2023-05-10T03:20:09.660Z,439.1538
2023-05-10T03:21:10.739Z,439.9231
2023-05-10T03:22:11.853Z,439.8462
2023-05-10T03:23:12.967Z,440.3077
2023-05-10T03:24:14.038Z,438.2308
2023-05-10T03:25:15.119Z,437.6923
2023-05-10T03:26:16.214Z,438.8462
2023-05-10T03:27:17.300Z,437.8462
2023-05-10T03:28:18.395Z,439.0769
2023-05-10T03:29:19.579Z,439.3077
2023-05-10T03:30:20.576Z,438.0769
2023-05-10T03:31:21.685Z,439.0000
2023-05-10T03:32:22.804Z,439.1538
2023-05-10T03:33:23.861Z,438.0769
2023-05-10T03:34:24.998Z,436.6923
2023-05-10T03:35:26.075Z,437.4615
2023-05-10T03:36:27.154Z,438.0769
2023-05-10T03:37:28.261Z,439.2308
2023-05-10T03:38:30.534Z,439.6923
2023-05-10T03:39:30.405Z,439.3077
2023-05-10T03:40:31.474Z,438.6154
2023-05-10T03:41:32.572Z,439.3846
2023-05-10T03:42:33.685Z,439.0000
2023-05-10T03:43:34.781Z,441.3077
2023-05-10T03:44:35.867Z,442.8462
2023-05-10T03:45:36.943Z,442.1538
2023-05-10T03:46:38.085Z,441.1538
2023-05-10T03:47:39.163Z,437.6154
2023-05-10T03:48:40.240Z,436.1538
2023-05-10T03:49:41.368Z,434.3077
2023-05-10T03:50:42.422Z,434.5385
2023-05-10T03:51:43.495Z,435.1538
2023-05-10T03:52:44.620Z,437.2308
2023-05-10T03:53:45.694Z,436.0000
2023-05-10T03:54:46.807Z,434.2308
2023-05-10T03:55:47.861Z,432.7692
2023-05-10T03:56:49.023Z,433.7692
2023-05-10T03:57:50.053Z,435.6923
2023-05-10T03:58:51.123Z,438.0769
2023-05-10T03:59:52.229Z,438.9231
2023-05-10T04:00:53.335Z,436.6923
2023-05-10T04:01:54.490Z,434.2308
2023-05-10T04:02:55.542Z,432.8462
2023-05-10T04:03:56.665Z,432.5385
2023-05-10T04:04:57.689Z,433.4615
2023-05-10T04:05:58.856Z,433.2308
2023-05-10T04:06:59.868Z,432.6154
2023-05-10T04:08:00.968Z,434.0769
2023-05-10T04:09:02.082Z,433.4615
2023-05-10T04:10:03.174Z,433.1538
2023-05-10T04:11:04.230Z,432.8462
2023-05-10T04:12:05.365Z,431.4615
2023-05-10T04:13:06.511Z,432.5385
2023-05-10T04:14:07.503Z,432.3846
2023-05-10T04:15:08.653Z,431.0000
2023-05-10T04:16:09.685Z,430.2308
2023-05-10T04:17:10.817Z,428.5385
2023-05-10T04:18:11.900Z,426.7692
2023-05-10T04:19:12.964Z,426.6923
2023-05-10T04:20:14.193Z,427.1538
2023-05-10T04:21:15.168Z,427.7692
2023-05-10T04:22:16.234Z,427.2308
2023-05-10T04:23:17.300Z,427.0000
2023-05-10T04:24:18.402Z,428.3077
2023-05-10T04:25:19.488Z,428.7692
2023-05-10T04:26:20.577Z,430.7692
2023-05-10T04:27:21.701Z,432.6154
2023-05-10T04:28:22.760Z,434.0769
2023-05-10T04:29:23.863Z,435.9231
2023-05-10T04:30:24.957Z,436.0000
2023-05-10T04:31:26.074Z,435.2308
2023-05-10T04:32:27.191Z,435.1538
2023-05-10T04:33:28.288Z,435.5385
2023-05-10T04:34:29.300Z,430.8462
2023-05-10T04:35:30.385Z,430.5385
2023-05-10T04:36:31.470Z,429.7692
2023-05-10T04:37:32.575Z,430.0000
2023-05-10T04:38:33.728Z,429.6923
2023-05-10T04:39:34.759Z,430.4615
2023-05-10T04:40:35.933Z,430.6923
2023-05-10T04:41:36.919Z,432.1538
2023-05-10T04:42:38.017Z,430.9231
2023-05-10T04:43:39.245Z,432.8462
2023-05-10T04:44:40.207Z,434.9231
2023-05-10T04:45:41.325Z,435.0769
2023-05-10T04:46:42.510Z,435.7692
2023-05-10T04:47:43.521Z,436.7692
2023-05-10T04:48:44.563Z,436.8462
2023-05-10T04:49:45.645Z,436.3077
2023-05-10T04:50:46.771Z,438.5385
2023-05-10T04:51:47.868Z,440.6923
2023-05-10T04:52:48.936Z,436.8462
2023-05-10T04:54:01.446Z,434.7692
2023-05-10T04:54:52.116Z,435.8462
2023-05-10T04:55:52.215Z,438.3077
2023-05-10T04:56:53.294Z,438.7692
2023-05-10T04:57:54.388Z,436.5385
2023-05-10T04:58:55.498Z,436.2308
2023-05-10T04:59:56.544Z,436.3077
2023-05-10T05:00:57.674Z,434.3846
2023-05-10T05:01:58.801Z,434.4615
2023-05-10T05:02:59.930Z,434.4615
2023-05-10T05:04:01.043Z,435.8462
2023-05-10T05:05:02.015Z,436.2308
2023-05-10T05:06:03.168Z,436.4615
2023-05-10T05:07:04.206Z,433.3077
2023-05-10T05:08:05.295Z,431.0769
2023-05-10T05:09:06.396Z,430.3846
2023-05-10T05:10:07.525Z,430.0769
2023-05-10T05:11:08.574Z,428.0769
2023-05-10T05:12:09.706Z,428.4615
2023-05-10T05:13:10.782Z,429.6923
2023-05-10T05:14:11.833Z,431.8462
2023-05-10T05:15:12.967Z,434.6154
2023-05-10T05:16:14.223Z,436.8462
2023-05-10T05:17:15.168Z,437.0000
2023-05-10T05:18:16.233Z,435.7692
2023-05-10T05:19:17.371Z,434.0000
2023-05-10T05:20:18.674Z,433.0000
2023-05-10T05:21:19.516Z,434.1538
2023-05-10T05:22:20.619Z,434.8462
2023-05-10T05:23:21.741Z,434.6923
2023-05-10T05:24:22.786Z,432.2308
2023-05-10T05:25:23.869Z,431.6154
2023-05-10T05:26:24.971Z,430.3077
2023-05-10T05:27:26.053Z,429.3077
2023-05-10T05:28:27.180Z,430.3077
2023-05-10T05:29:28.246Z,430.8462
2023-05-10T05:30:29.342Z,431.6154
2023-05-10T05:31:30.496Z,433.4615
2023-05-10T05:32:31.552Z,432.9231
2023-05-10T05:33:32.617Z,432.3077
2023-05-10T05:34:33.734Z,431.2308
2023-05-10T05:35:34.813Z,433.0769
2023-05-10T05:36:37.619Z,436.5385
2023-05-10T05:37:36.981Z,436.3077
2023-05-10T05:38:38.093Z,436.2308
2023-05-10T05:39:39.229Z,436.2308
2023-05-10T05:40:40.291Z,436.2308
2023-05-10T05:41:41.351Z,436.3077
2023-05-10T05:42:42.458Z,434.8462
2023-05-10T05:43:43.544Z,432.6923
2023-05-10T05:44:44.623Z,430.6154
2023-05-10T05:45:45.777Z,431.5385
2023-05-10T05:46:46.866Z,434.0769
2023-05-10T05:47:47.976Z,433.6923
2023-05-10T05:48:48.987Z,430.6154
2023-05-10T05:49:50.109Z,429.0769
2023-05-10T05:50:51.182Z,427.1538
2023-05-10T05:51:52.270Z,427.9231
2023-05-10T05:52:53.366Z,427.0000
2023-05-10T05:53:54.497Z,426.6154
2023-05-10T05:54:55.549Z,424.3077
2023-05-10T05:55:56.621Z,426.6923
2023-05-10T05:56:59.830Z,427.9231
2023-05-10T05:57:58.829Z,426.7692
2023-05-10T05:58:59.912Z,428.0769
2023-05-10T06:00:01.019Z,430.0000
2023-05-10T06:01:02.099Z,430.0769
2023-05-10T06:02:03.213Z,430.9231
2023-05-10T06:03:04.378Z,431.7692
2023-05-10T06:04:05.444Z,431.1538
2023-05-10T06:05:06.507Z,430.9231
2023-05-10T06:06:07.571Z,433.9231
2023-05-10T06:07:08.704Z,432.7692
2023-05-10T06:08:09.772Z,430.4615
2023-05-10T06:09:10.834Z,431.1538
2023-05-10T06:10:11.929Z,431.8462
2023-05-10T06:11:13.036Z,430.3846
2023-05-10T06:12:14.139Z,430.9231
2023-05-10T06:13:15.245Z,429.1538
2023-05-10T06:14:16.310Z,427.5385
2023-05-10T06:15:17.593Z,428.7692
2023-05-10T06:16:18.503Z,428.0769
2023-05-10T06:17:19.603Z,426.5385
2023-05-10T06:18:20.717Z,424.6154
2023-05-10T06:19:21.785Z,426.8462
2023-05-10T06:20:22.894Z,428.0769
2023-05-10T06:21:24.001Z,429.0000
2023-05-10T06:22:25.063Z,430.7692
2023-05-10T06:23:26.156Z,430.8462
2023-05-10T06:24:27.261Z,430.7692
2023-05-10T06:25:28.360Z,428.4615
2023-05-10T06:26:29.487Z,427.1538
2023-05-10T06:27:30.535Z,426.6923
2023-05-10T06:28:31.710Z,426.6923
2023-05-10T06:29:32.808Z,427.6154
2023-05-10T06:30:33.933Z,428.3077
2023-05-10T06:31:35.011Z,430.0000
2023-05-10T06:32:36.174Z,430.9231
2023-05-10T06:33:37.194Z,430.0769
2023-05-10T06:34:38.254Z,430.0000
2023-05-10T06:35:39.350Z,429.1538
2023-05-10T06:36:40.460Z,428.7692
2023-05-10T06:37:41.603Z,429.0769
2023-05-10T06:38:42.682Z,429.3846
2023-05-10T06:39:43.746Z,427.7692
2023-05-10T06:40:44.834Z,424.5385
2023-05-10T06:41:45.943Z,423.3077
2023-05-10T06:42:47.001Z,424.0769
2023-05-10T06:43:48.133Z,423.9231
2023-05-10T06:44:49.236Z,425.2308
2023-05-10T06:45:50.279Z,427.6923
2023-05-10T06:46:51.446Z,428.0000
2023-05-10T06:47:52.565Z,426.6154
2023-05-10T06:48:53.601Z,427.3846
2023-05-10T06:49:54.678Z,426.7692
2023-05-10T06:50:55.757Z,428.0000
2023-05-10T06:51:56.843Z,429.3077
2023-05-10T06:52:57.960Z,428.7692
2023-05-10T06:53:59.025Z,427.3077
2023-05-10T06:55:00.179Z,426.0769
2023-05-10T06:56:01.212Z,426.3077
2023-05-10T06:57:03.935Z,425.9231
2023-05-10T06:58:03.436Z,425.5385
2023-05-10T06:59:04.575Z,423.5385
2023-05-10T07:00:05.660Z,426.3846
2023-05-10T07:01:06.731Z,425.8462
2023-05-10T07:02:07.848Z,426.6154
2023-05-10T07:03:09.017Z,425.6923
2023-05-10T07:04:09.962Z,423.3077
2023-05-10T07:05:11.037Z,422.3846
2023-05-10T07:06:21.758Z,418.5385
2023-05-10T07:07:14.261Z,418.6154
2023-05-10T07:08:14.371Z,421.0000
2023-05-10T07:09:15.422Z,422.6923
2023-05-10T07:10:16.512Z,425.2308
2023-05-10T07:11:17.628Z,426.2308
2023-05-10T07:12:18.733Z,426.0000
2023-05-10T07:13:19.915Z,424.3846
2023-05-10T07:14:20.933Z,426.8462
2023-05-10T07:15:22.002Z,424.2308
2023-05-10T07:16:23.306Z,423.6154
2023-05-10T07:17:24.216Z,426.1538
2023-05-10T07:18:25.302Z,425.6923
2023-05-10T07:19:26.369Z,425.0000
2023-05-10T07:20:27.490Z,423.3077
2023-05-10T07:21:28.582Z,420.4615
2023-05-10T07:22:29.625Z,419.6154
2023-05-10T07:23:30.762Z,422.2308
2023-05-10T07:24:31.835Z,423.3077
2023-05-10T07:25:32.957Z,422.9231
2023-05-10T07:26:34.058Z,423.8462
2023-05-10T07:27:35.149Z,424.6154
2023-05-10T07:28:36.218Z,424.0000
2023-05-10T07:29:37.301Z,424.9231
2023-05-10T07:30:38.426Z,426.1538
2023-05-10T07:31:39.531Z,426.3077
2023-05-10T07:32:40.755Z,426.1538
2023-05-10T07:33:41.725Z,425.6923
2023-05-10T07:34:42.792Z,420.8462
2023-05-10T07:35:43.919Z,421.0769
2023-05-10T07:36:44.975Z,423.9231
2023-05-10T07:37:46.057Z,426.0000
2023-05-10T07:38:47.171Z,426.3846
2023-05-10T07:39:48.314Z,427.3077
2023-05-10T07:40:49.353Z,427.8462
2023-05-10T07:41:50.469Z,427.9231
2023-05-10T07:42:51.546Z,426.1538
2023-05-10T07:43:52.664Z,424.7692
2023-05-10T07:44:53.739Z,422.4615
2023-05-10T07:45:56.427Z,423.1538
2023-05-10T07:46:55.976Z,422.9231
2023-05-10T07:47:57.100Z,425.7692
2023-05-10T07:48:58.138Z,427.0000
2023-05-10T07:49:59.229Z,426.0769
2023-05-10T07:51:00.310Z,425.1538
2023-05-10T07:52:01.406Z,425.4615
2023-05-10T07:53:02.516Z,424.4615
2023-05-10T07:54:03.631Z,423.4615
2023-05-10T07:55:04.684Z,425.3846
2023-05-10T07:56:05.777Z,425.0000
2023-05-10T07:57:06.901Z,427.1538
2023-05-10T07:58:07.989Z,425.3077
2023-05-10T07:59:11.304Z,423.6154
2023-05-10T08:00:10.174Z,422.4615
2023-05-10T08:01:11.250Z,421.2308
2023-05-10T08:02:12.405Z,423.0000
2023-05-10T08:03:13.584Z,420.0769
2023-05-10T08:04:14.569Z,422.6154
2023-05-10T08:05:16.008Z,421.7692
2023-05-10T08:06:16.720Z,421.5385
2023-05-10T08:07:17.810Z,421.6154
2023-05-10T08:08:18.922Z,420.3846
2023-05-10T08:09:20.153Z,422.3077
2023-05-10T08:10:21.180Z,425.3846
2023-05-10T08:11:22.178Z,425.6923
2023-05-10T08:12:23.297Z,424.6154
2023-05-10T08:13:24.358Z,423.9231
2023-05-10T08:14:25.463Z,420.9231
2023-05-10T08:15:26.540Z,417.6923
2023-05-10T08:16:27.829Z,416.9231
2023-05-10T08:17:28.738Z,417.9231
2023-05-10T08:18:29.877Z,418.6154
2023-05-10T08:19:30.944Z,420.0769
2023-05-10T08:20:32.008Z,422.7692
2023-05-10T08:21:33.116Z,427.3077
2023-05-10T08:22:34.198Z,429.0769
2023-05-10T08:23:35.293Z,427.6154
2023-05-10T08:24:36.418Z,427.5385
2023-05-10T08:25:37.463Z,425.6154
2023-05-10T08:26:38.560Z,426.0000
2023-05-10T08:27:39.644Z,426.7692
2023-05-10T08:28:40.748Z,426.8462
2023-05-10T08:29:49.397Z,426.1538
2023-05-10T08:30:43.938Z,427.4615
2023-05-10T08:31:44.185Z,429.6923
2023-05-10T08:32:45.191Z,427.4615
2023-05-10T08:33:46.234Z,426.3077
2023-05-10T08:34:47.326Z,424.9231
2023-05-10T08:35:48.416Z,424.0769
2023-05-10T08:36:49.511Z,425.3077
2023-05-10T08:37:50.617Z,425.3077
2023-05-10T08:38:52.187Z,427.6154
2023-05-10T08:39:52.815Z,425.8462
2023-05-10T08:40:53.957Z,421.3077
2023-05-10T08:41:55.017Z,420.0769
2023-05-10T08:42:56.087Z,418.7692
2023-05-10T08:43:57.192Z,417.9231
2023-05-10T08:44:58.297Z,418.0769
2023-05-10T08:45:59.418Z,417.9231
2023-05-10T08:47:00.735Z,420.8462
2023-05-10T08:48:01.591Z,418.5385
2023-05-10T08:49:02.710Z,416.8462
2023-05-10T08:50:03.779Z,418.6154
2023-05-10T08:51:04.873Z,420.5385
2023-05-10T08:52:05.973Z,420.0769
2023-05-10T08:53:07.082Z,420.4615
2023-05-10T08:54:08.223Z,420.3846
2023-05-10T08:55:09.318Z,419.5385
2023-05-10T08:56:10.417Z,419.0769
2023-05-10T08:57:11.504Z,418.3846
2023-05-10T08:58:12.624Z,418.3846
2023-05-10T08:59:13.732Z,421.0000
2023-05-10T09:00:14.827Z,423.4615
2023-05-10T09:01:15.966Z,421.7692
2023-05-10T09:02:18.811Z,422.3077
2023-05-10T09:03:18.170Z,419.6154
2023-05-10T09:04:19.325Z,418.9231
2023-05-10T09:05:20.620Z,419.3077
2023-05-10T09:06:21.490Z,418.9231
2023-05-10T09:07:22.567Z,418.2308
2023-05-10T09:08:23.718Z,415.9231
2023-05-10T09:09:24.776Z,414.6923
2023-05-10T09:10:26.013Z,413.8462
2023-05-10T09:11:26.975Z,414.1538
2023-05-10T09:12:28.068Z,415.3846
2023-05-10T09:13:29.210Z,413.7692
2023-05-10T09:14:30.334Z,412.8462
2023-05-10T09:15:31.462Z,412.3077
2023-05-10T09:16:32.517Z,414.7692
2023-05-10T09:17:33.680Z,414.0000
2023-05-10T09:18:34.833Z,411.9231
2023-05-10T09:19:35.834Z,413.0769
2023-05-10T09:20:36.933Z,412.6923
2023-05-10T09:21:38.051Z,412.3846
2023-05-10T09:22:39.161Z,415.4615
2023-05-10T09:23:40.235Z,416.4615
2023-05-10T09:24:41.341Z,415.4615
2023-05-10T09:25:42.482Z,414.6923
2023-05-10T09:26:43.574Z,415.1538
2023-05-10T09:27:44.681Z,416.0769
2023-05-10T09:28:45.832Z,414.3077
2023-05-10T09:29:46.889Z,411.2308
2023-05-10T09:30:48.022Z,412.7692
2023-05-10T09:31:49.099Z,410.9231
2023-05-10T09:32:50.346Z,411.0769
2023-05-10T09:33:51.300Z,414.0769
2023-05-10T09:34:52.517Z,413.6154
2023-05-10T09:35:53.562Z,412.6154
2023-05-10T09:36:54.637Z,414.3846
2023-05-10T09:37:55.743Z,414.3077
2023-05-10T09:38:56.832Z,413.0769
2023-05-10T09:39:57.957Z,414.5385
2023-05-10T09:40:59.067Z,418.6154
2023-05-10T09:42:00.165Z,420.0000
2023-05-10T09:43:01.275Z,419.0769
2023-05-10T09:44:02.381Z,418.2308
2023-05-10T09:45:03.487Z,416.0000
2023-05-10T09:46:04.605Z,416.5385
2023-05-10T09:47:05.727Z,417.1538
2023-05-10T09:48:06.915Z,418.8462
2023-05-10T09:49:07.910Z,419.3846
2023-05-10T09:50:09.037Z,419.5385
2023-05-10T09:51:10.140Z,421.3077
2023-05-10T09:52:11.226Z,423.6923
2023-05-10T09:53:12.403Z,424.3077
2023-05-10T09:54:13.463Z,423.6154
2023-05-10T09:55:14.718Z,420.6923
2023-05-10T09:56:15.670Z,420.2308
2023-05-10T09:57:16.790Z,420.0769
2023-05-10T09:58:17.907Z,422.4615
2023-05-10T09:59:19.012Z,421.8462
2023-05-10T10:00:20.195Z,419.4615
2023-05-10T10:01:21.252Z,418.6923
2023-05-10T10:02:22.387Z,419.0769
2023-05-10T10:03:23.434Z,420.9231
2023-05-10T10:04:24.622Z,420.1538
2023-05-10T10:05:25.676Z,421.1538
2023-05-10T10:06:29.986Z,422.3846
2023-05-10T10:07:27.876Z,424.8462
2023-05-10T10:08:28.969Z,424.0769
2023-05-10T10:09:30.067Z,423.2308
2023-05-10T10:10:31.172Z,425.4615
2023-05-10T10:11:32.289Z,426.7692
2023-05-10T10:12:33.485Z,427.7692
2023-05-10T10:13:34.503Z,426.4615
2023-05-10T10:14:35.596Z,424.6923
2023-05-10T10:15:36.831Z,424.6923
2023-05-10T10:16:43.653Z,420.9231
2023-05-10T10:17:39.961Z,421.0769
2023-05-10T10:18:40.046Z,422.9231
2023-05-10T10:19:41.148Z,423.3846
2023-05-10T10:20:42.217Z,421.4615
2023-05-10T10:21:43.370Z,418.8462
2023-05-10T10:22:44.428Z,417.8462
2023-05-10T10:23:45.532Z,419.3846
2023-05-10T10:24:46.627Z,419.3846
2023-05-10T10:25:47.719Z,419.8462
2023-05-10T10:26:48.848Z,419.9231
2023-05-10T10:27:49.931Z,419.8462
2023-05-10T10:28:51.084Z,421.2308
2023-05-10T10:29:52.205Z,420.0769
2023-05-10T10:30:53.311Z,417.8462
2023-05-10T10:31:54.549Z,417.3846
2023-05-10T10:32:55.507Z,417.1538
2023-05-10T10:33:56.584Z,417.4615
2023-05-10T10:34:57.655Z,417.4615
2023-05-10T10:35:58.761Z,417.1538
2023-05-10T10:36:59.866Z,416.7692
2023-05-10T10:38:00.989Z,416.3846
2023-05-10T10:39:02.048Z,415.8462
2023-05-10T10:40:03.128Z,416.4615
2023-05-10T10:41:04.244Z,416.2308
2023-05-10T10:42:05.343Z,416.9231
2023-05-10T10:43:06.413Z,420.1538
2023-05-10T10:44:07.520Z,420.6154
2023-05-10T10:45:08.620Z,419.8462
2023-05-10T10:46:09.720Z,421.6154
2023-05-10T10:47:11.044Z,422.7692
2023-05-10T10:48:11.909Z,423.7692
2023-05-10T10:49:13.019Z,423.1538
2023-05-10T10:50:14.925Z,421.7692
2023-05-10T10:51:15.183Z,421.3077
2023-05-10T10:52:16.323Z,420.3846
2023-05-10T10:53:17.414Z,419.2308
2023-05-10T10:54:18.519Z,417.4615
2023-05-10T10:55:19.657Z,415.2308
2023-05-10T10:56:20.675Z,416.0769
2023-05-10T10:57:21.769Z,417.9231
2023-05-10T10:58:22.856Z,418.0000
2023-05-10T10:59:23.989Z,417.3846
2023-05-10T11:00:25.067Z,418.3846
2023-05-10T11:01:26.165Z,419.6154
2023-05-10T11:02:27.715Z,419.0000
2023-05-10T11:03:28.361Z,419.4615
2023-05-10T11:04:29.511Z,418.0000
2023-05-10T11:05:30.547Z,419.4615
2023-05-10T11:06:31.656Z,419.0769
2023-05-10T11:07:32.768Z,422.1538
2023-05-10T11:08:35.714Z,423.4615
2023-05-10T11:09:34.920Z,424.8462
2023-05-10T11:10:36.028Z,423.5385
2023-05-10T11:11:37.117Z,423.3846
2023-05-10T11:12:38.220Z,423.6923
2023-05-10T11:13:39.378Z,423.6154
2023-05-10T11:14:40.403Z,420.9231
2023-05-10T11:15:41.581Z,421.9231
2023-05-10T11:16:42.597Z,423.1538
2023-05-10T11:17:43.739Z,421.5385
2023-05-10T11:18:44.933Z,419.4615
2023-05-10T11:19:45.887Z,418.9231
2023-05-10T11:20:46.998Z,417.6154
2023-05-10T11:21:48.087Z,417.7692
2023-05-10T11:22:49.185Z,416.5385
2023-05-10T11:23:50.275Z,416.1538
2023-05-10T11:24:51.371Z,414.6923
2023-05-10T11:25:52.467Z,414.5385
2023-05-10T11:26:53.567Z,414.6923
2023-05-10T11:27:54.703Z,414.8462
2023-05-10T11:28:55.750Z,415.5385
2023-05-10T11:29:56.861Z,415.5385
2023-05-10T11:30:57.926Z,418.2308
2023-05-10T11:31:59.023Z,418.6154
2023-05-10T11:33:00.192Z,421.2308
2023-05-10T11:34:01.223Z,423.3077
2023-05-10T11:35:02.308Z,422.1538
2023-05-10T11:36:03.381Z,421.0769
2023-05-10T11:37:04.493Z,421.0000
2023-05-10T11:38:05.591Z,421.3077
2023-05-10T11:39:06.671Z,418.7692
2023-05-10T11:40:07.775Z,417.0769
2023-05-10T11:41:08.855Z,418.0769
2023-05-10T11:42:10.049Z,419.5385
2023-05-10T11:43:11.060Z,420.9231
2023-05-10T11:44:12.160Z,421.6923
2023-05-10T11:45:13.242Z,422.8462
2023-05-10T11:46:14.344Z,420.8462
2023-05-10T11:47:15.423Z,420.6923
2023-05-10T11:48:16.613Z,423.3846
2023-05-10T11:49:17.618Z,424.1538
2023-05-10T11:50:18.993Z,425.6154
2023-05-10T11:51:19.800Z,425.9231
2023-05-10T11:52:20.922Z,424.8462
2023-05-10T11:53:23.270Z,423.1538
2023-05-10T11:54:23.124Z,424.8462
2023-05-10T11:55:24.247Z,423.2308
2023-05-10T11:56:25.333Z,427.5385
2023-05-10T11:57:26.382Z,425.6154